createdAt,value
2019-05-02T00:00:06.231Z,7.75
2019-05-02T00:02:34.821Z,7.76
2019-05-02T00:05:01.597Z,7.76
2019-05-02T00:07:28.365Z,7.74
2019-05-02T00:09:55.047Z,7.74
2019-05-02T00:12:22.142Z,7.74
2019-05-02T00:14:51.100Z,7.73
2019-05-02T00:17:20.501Z,7.78
2019-05-02T00:19:49.860Z,7.77
2019-05-02T00:22:18.435Z,7.79
2019-05-02T00:24:46.136Z,7.79
2019-05-02T00:27:13.313Z,7.76
2019-05-02T00:29:40.310Z,7.76
2019-05-02T00:32:07.310Z,7.74
2019-05-02T00:34:34.088Z,7.77
2019-05-02T00:37:00.881Z,7.79
2019-05-02T00:39:27.757Z,7.82
2019-05-02T00:41:54.465Z,7.78
2019-05-02T00:44:21.319Z,7.79
2019-05-02T00:46:48.073Z,7.75
2019-05-02T00:49:14.837Z,7.76
2019-05-02T00:51:41.617Z,7.78
2019-05-02T00:54:08.380Z,7.76
2019-05-02T00:56:35.041Z,7.74
2019-05-02T00:59:02.261Z,7.72
2019-05-02T01:01:53.458Z,7.66
2019-05-02T01:04:31.438Z,7.66
2019-05-02T01:06:58.212Z,7.60
2019-05-02T01:09:24.981Z,7.58
2019-05-02T01:11:51.782Z,7.57
2019-05-02T01:14:18.562Z,7.56
2019-05-02T01:16:49.152Z,7.58
2019-05-02T01:19:16.109Z,7.55
2019-05-02T01:21:42.806Z,7.52
2019-05-02T01:24:09.489Z,7.50
2019-05-02T01:26:40.077Z,7.46
2019-05-02T01:29:12.594Z,7.48
2019-05-02T01:32:01.776Z,7.51
2019-05-02T01:34:56.404Z,7.48
2019-05-02T01:37:27.809Z,7.50
2019-05-02T01:39:54.477Z,7.51
2019-05-02T01:42:21.165Z,7.52
2019-05-02T01:44:47.957Z,7.52
2019-05-02T01:47:14.722Z,7.57
2019-05-02T01:49:41.385Z,7.58
2019-05-02T01:52:08.178Z,7.57
2019-05-02T01:54:34.883Z,7.62
2019-05-02T01:57:03.896Z,7.62
2019-05-02T01:59:34.001Z,7.66
2019-05-02T02:01:59.187Z,7.65
2019-05-02T02:04:26.186Z,7.69
2019-05-02T02:06:52.866Z,7.71
2019-05-02T02:09:43.944Z,7.74
2019-05-02T02:15:06.132Z,7.81
2019-05-02T02:17:33.098Z,7.84
2019-05-02T02:20:01.709Z,7.91
2019-05-02T02:22:47.443Z,7.91
2019-05-02T02:25:45.494Z,7.96
2019-05-02T02:28:12.186Z,7.99
2019-05-02T02:30:39.047Z,8.01
2019-05-02T02:33:07.823Z,8.04
2019-05-02T02:35:34.753Z,8.03
2019-05-02T02:38:01.436Z,8.05
2019-05-02T02:40:33.718Z,8.06
2019-05-02T02:42:56.899Z,8.10
2019-05-02T02:45:35.605Z,8.07
2019-05-02T02:48:02.663Z,8.13
2019-05-02T02:50:29.442Z,8.14
2019-05-02T02:52:56.220Z,8.15
2019-05-02T02:55:24.594Z,8.12
2019-05-02T02:57:51.546Z,8.12
2019-05-02T03:00:18.335Z,8.13
2019-05-02T03:02:48.644Z,8.13
2019-05-02T03:05:18.946Z,8.18
2019-05-02T03:07:42.496Z,8.22
2019-05-02T03:10:09.288Z,8.22
2019-05-02T03:12:54.294Z,8.25
2019-05-02T03:15:28.025Z,8.25
2019-05-02T03:17:51.418Z,8.28
2019-05-02T03:20:18.127Z,8.30
2019-05-02T03:22:44.793Z,8.31
2019-05-02T03:25:17.940Z,8.35
2019-05-02T03:27:40.550Z,8.37
2019-05-02T03:30:07.873Z,8.42
2019-05-02T03:32:36.226Z,8.45
2019-05-02T03:35:03.897Z,8.46
2019-05-02T03:37:31.133Z,8.47
2019-05-02T03:40:00.685Z,8.50
2019-05-02T03:42:26.740Z,8.68
2019-05-02T03:44:56.407Z,8.50
2019-05-02T03:47:22.195Z,8.52
2019-05-02T03:49:51.818Z,8.56
2019-05-02T03:52:17.574Z,8.54
2019-05-02T03:54:50.290Z,8.52
2019-05-02T03:57:12.834Z,8.63
2019-05-02T03:59:41.869Z,8.57
2019-05-02T04:02:14.241Z,8.62
2019-05-02T04:04:37.238Z,8.63
2019-05-02T04:07:04.336Z,8.72
2019-05-02T04:09:39.146Z,8.70
2019-05-02T04:12:02.596Z,8.70
2019-05-02T04:14:37.791Z,8.73
2019-05-02T04:16:58.518Z,8.69
2019-05-02T04:19:28.670Z,8.72
2019-05-02T04:21:54.965Z,8.69
2019-05-02T04:24:22.582Z,8.71
2019-05-02T04:26:53.929Z,8.71
2019-05-02T04:29:18.294Z,8.71
2019-05-02T04:31:44.979Z,8.74
2019-05-02T04:34:15.301Z,8.78
2019-05-02T04:36:40.562Z,8.77
2019-05-02T04:39:15.044Z,9.01
2019-05-02T04:41:39.265Z,8.88
2019-05-02T04:44:04.610Z,8.83
2019-05-02T04:46:31.641Z,8.82
2019-05-02T04:48:58.929Z,8.84
2019-05-02T04:51:28.659Z,8.81
2019-05-02T04:53:54.498Z,8.81
2019-05-02T04:56:21.266Z,8.88
2019-05-02T04:58:49.357Z,8.84
2019-05-02T05:01:16.517Z,8.81
2019-05-02T05:03:49.137Z,8.97
2019-05-02T05:06:12.909Z,9.08
2019-05-02T05:08:41.884Z,8.93
2019-05-02T05:11:09.118Z,8.89
2019-05-02T05:13:37.396Z,8.88
2019-05-02T05:16:08.634Z,8.95
2019-05-02T05:18:33.120Z,8.91
2019-05-02T05:20:59.793Z,8.91
2019-05-02T05:23:59.317Z,8.89
2019-05-02T05:26:27.625Z,8.96
2019-05-02T05:28:54.558Z,8.94
2019-05-02T05:31:23.938Z,8.87
2019-05-02T05:33:50.966Z,8.82
2019-05-02T05:36:19.960Z,8.90
2019-05-02T05:38:47.940Z,9.08
2019-05-02T05:41:20.169Z,8.93
2019-05-02T05:43:50.053Z,8.87
2019-05-02T05:46:17.665Z,8.83
2019-05-02T05:48:43.925Z,9.24
2019-05-02T05:51:11.829Z,9.05
2019-05-02T05:53:39.163Z,8.90
2019-05-02T05:56:07.812Z,8.94
2019-05-02T05:58:38.909Z,8.92
2019-05-02T06:01:03.234Z,8.94
2019-05-02T06:03:34.088Z,8.92
2019-05-02T06:05:59.077Z,8.92
2019-05-02T06:08:25.782Z,8.94
2019-05-02T06:10:52.572Z,9.00
2019-05-02T06:13:19.347Z,9.08
2019-05-02T06:15:46.129Z,9.12
2019-05-02T06:18:12.833Z,9.24
2019-05-02T06:20:39.505Z,9.17
2019-05-02T06:23:06.175Z,9.08
2019-05-02T06:25:36.425Z,9.06
2019-05-02T06:28:05.286Z,9.26
2019-05-02T06:30:31.195Z,9.14
2019-05-02T06:32:58.985Z,9.10
2019-05-02T06:35:25.763Z,9.22
2019-05-02T06:37:52.565Z,9.23
2019-05-02T06:40:19.234Z,9.18
2019-05-02T06:42:46.065Z,9.19
2019-05-02T06:45:13.137Z,9.25
2019-05-02T06:47:41.859Z,9.64
2019-05-02T06:50:09.613Z,9.31
2019-05-02T06:52:36.287Z,9.12
2019-05-02T06:55:03.689Z,9.09
2019-05-02T06:57:30.442Z,9.06
2019-05-02T06:59:57.308Z,9.05
2019-05-02T07:02:28.293Z,9.04
2019-05-02T07:04:54.723Z,9.17
2019-05-02T07:07:25.041Z,9.32
2019-05-02T07:09:50.816Z,9.24
2019-05-02T07:12:17.489Z,9.12
2019-05-02T07:14:45.883Z,9.08
2019-05-02T07:17:21.442Z,9.05
2019-05-02T07:19:50.873Z,9.20
2019-05-02T07:22:18.834Z,9.21
2019-05-02T07:24:45.527Z,9.10
2019-05-02T07:27:12.294Z,9.04
2019-05-02T07:29:38.974Z,9.07
2019-05-02T07:32:05.949Z,9.06
2019-05-02T07:34:32.635Z,9.05
2019-05-02T07:36:59.422Z,9.04
2019-05-02T07:39:26.178Z,9.14
2019-05-02T07:41:53.008Z,9.10
2019-05-02T07:44:20.871Z,9.03
2019-05-02T07:46:52.062Z,9.07
2019-05-02T07:49:16.378Z,9.07
2019-05-02T07:51:43.168Z,9.05
2019-05-02T07:54:09.849Z,9.09
2019-05-02T07:56:36.630Z,9.12
2019-05-02T07:59:03.597Z,9.18
2019-05-02T08:01:30.278Z,9.09
2019-05-02T08:03:57.060Z,9.18
2019-05-02T08:06:34.597Z,9.04
2019-05-02T08:08:52.989Z,9.08
2019-05-02T08:11:19.768Z,9.03
2019-05-02T08:13:49.507Z,9.02
2019-05-02T08:16:15.178Z,8.94
2019-05-02T08:18:41.921Z,9.01
2019-05-02T08:21:08.705Z,9.09
2019-05-02T08:23:35.939Z,8.93
2019-05-02T08:26:02.700Z,8.93
2019-05-02T08:28:35.416Z,8.88
2019-05-02T08:31:03.245Z,8.85
2019-05-02T08:33:34.846Z,8.73
2019-05-02T08:36:01.636Z,8.75
2019-05-02T08:38:29.767Z,8.78
2019-05-02T08:40:57.320Z,8.77
2019-05-02T08:43:25.382Z,8.72
2019-05-02T08:45:52.821Z,8.74
2019-05-02T08:48:22.485Z,8.74
2019-05-02T08:50:48.213Z,8.75
2019-05-02T08:53:19.684Z,8.78
2019-05-02T08:55:45.345Z,8.78
2019-05-02T08:58:14.491Z,8.77
2019-05-02T09:00:40.805Z,8.79
2019-05-02T09:03:07.471Z,8.79
2019-05-02T09:05:36.964Z,8.84
2019-05-02T09:08:03.050Z,8.81
2019-05-02T09:10:29.823Z,8.80
2019-05-02T09:12:56.604Z,8.79
2019-05-02T09:15:23.387Z,8.90
2019-05-02T09:17:54.458Z,8.78
2019-05-02T09:20:20.753Z,8.81
2019-05-02T09:22:54.104Z,8.81
2019-05-02T09:25:16.591Z,8.77
2019-05-02T09:27:43.278Z,8.74
2019-05-02T09:30:12.294Z,8.70
2019-05-02T09:32:41.912Z,8.75
2019-05-02T09:35:08.927Z,8.79
2019-05-02T09:37:35.609Z,8.83
2019-05-02T09:40:06.800Z,8.84
2019-05-02T09:42:32.479Z,8.87
2019-05-02T09:44:59.654Z,8.79
2019-05-02T09:47:32.145Z,8.81
2019-05-02T09:50:14.404Z,8.83
2019-05-02T09:52:44.153Z,8.83
2019-05-02T09:55:12.158Z,8.91
2019-05-02T09:57:38.963Z,8.89
2019-05-02T10:00:12.687Z,8.84
2019-05-02T10:02:41.879Z,8.93
2019-05-02T10:05:09.406Z,8.97
2019-05-02T10:07:37.457Z,8.97
2019-05-02T10:10:06.715Z,9.07
2019-05-02T10:12:33.668Z,9.19
2019-05-02T10:15:02.334Z,9.32
2019-05-02T10:17:29.639Z,9.42
2019-05-02T10:19:57.367Z,9.43
2019-05-02T10:22:26.680Z,9.51
2019-05-02T10:24:53.085Z,9.45
2019-05-02T10:27:21.631Z,9.37
2019-05-02T10:29:48.493Z,9.36
2019-05-02T10:32:16.631Z,9.37
2019-05-02T10:34:47.568Z,9.36
2019-05-02T10:37:12.371Z,9.31
2019-05-02T10:39:39.122Z,9.29
2019-05-02T10:42:05.803Z,9.29
2019-05-02T10:44:36.536Z,9.32
2019-05-02T10:47:02.898Z,9.40
2019-05-02T10:49:39.118Z,9.41
2019-05-02T10:52:05.923Z,9.45
2019-05-02T10:54:36.132Z,9.51
2019-05-02T10:57:02.317Z,9.42
2019-05-02T10:59:29.405Z,9.48
2019-05-02T11:02:05.005Z,9.47
2019-05-02T11:04:33.125Z,9.50
2019-05-02T11:07:02.479Z,9.74
2019-05-02T11:09:28.879Z,9.81
2019-05-02T11:12:02.465Z,9.78
2019-05-02T11:14:39.708Z,9.70
2019-05-02T11:17:18.029Z,9.83
2019-05-02T11:19:57.330Z,10.00
2019-05-02T11:22:24.280Z,9.81
2019-05-02T11:24:52.308Z,9.71
2019-05-02T11:27:19.338Z,9.80
2019-05-02T11:29:46.133Z,9.86
2019-05-02T11:32:12.918Z,9.94
2019-05-02T11:34:41.968Z,9.89
2019-05-02T11:37:08.586Z,10.04
2019-05-02T11:39:44.119Z,10.05
2019-05-02T11:42:03.962Z,10.06
2019-05-02T11:44:32.465Z,10.13
2019-05-02T11:46:59.239Z,10.26
2019-05-02T11:49:26.539Z,10.26
2019-05-02T11:51:57.113Z,10.26
2019-05-02T11:54:22.658Z,10.32
2019-05-02T11:56:51.260Z,10.29
2019-05-02T11:59:20.758Z,10.44
2019-05-02T12:01:59.462Z,10.47
2019-05-02T12:04:24.613Z,10.47
2019-05-02T12:07:01.001Z,10.60
2019-05-02T12:09:20.014Z,10.66
2019-05-02T12:11:47.518Z,10.66
2019-05-02T12:14:15.419Z,10.65
2019-05-02T12:16:43.091Z,10.75
2019-05-02T12:19:14.365Z,10.75
2019-05-02T12:21:39.339Z,10.84
2019-05-02T12:24:06.217Z,10.84
2019-05-02T12:26:32.909Z,10.77
2019-05-02T12:28:59.786Z,10.88
2019-05-02T12:31:28.380Z,10.88
2019-05-02T12:33:55.733Z,11.10
2019-05-02T12:36:22.792Z,11.10
2019-05-02T12:38:49.644Z,11.18
2019-05-02T12:41:21.935Z,11.18
2019-05-02T12:43:46.099Z,11.18
2019-05-02T12:46:12.891Z,11.15
2019-05-02T12:48:39.577Z,11.14
2019-05-02T12:51:07.462Z,11.22
2019-05-02T12:53:34.265Z,11.16
2019-05-02T12:56:02.197Z,11.30
2019-05-02T12:58:29.030Z,11.32
2019-05-02T13:00:55.761Z,11.45
2019-05-02T13:03:40.889Z,11.45
2019-05-02T13:06:07.711Z,11.53
2019-05-02T13:08:47.396Z,11.51
2019-05-02T13:11:23.687Z,11.53
2019-05-02T13:13:53.202Z,11.68
2019-05-02T13:16:19.178Z,11.68
2019-05-02T13:18:45.954Z,11.60
2019-05-02T13:21:16.925Z,11.62
2019-05-02T13:23:48.960Z,11.57
2019-05-02T13:26:19.644Z,11.53
2019-05-02T13:28:44.946Z,11.71
2019-05-02T13:31:18.703Z,11.58
2019-05-02T13:33:55.573Z,11.63
2019-05-02T13:36:39.135Z,11.69
2019-05-02T13:39:06.286Z,11.69
2019-05-02T13:41:35.115Z,11.76
2019-05-02T13:44:02.457Z,11.75
2019-05-02T13:46:29.260Z,11.75
2019-05-02T13:48:55.949Z,12.16
2019-05-02T13:51:22.649Z,12.16
2019-05-02T13:53:57.986Z,12.27
2019-05-02T13:56:47.280Z,12.32
2019-05-02T13:59:14.829Z,12.14
2019-05-02T14:01:42.585Z,12.17
2019-05-02T14:04:10.243Z,12.03
2019-05-02T14:06:39.053Z,12.03
2019-05-02T14:09:32.418Z,12.01
2019-05-02T14:12:25.014Z,12.35
2019-05-02T14:14:51.979Z,12.35
2019-05-02T14:17:18.949Z,12.30
2019-05-02T14:19:45.619Z,12.19
2019-05-02T14:22:13.532Z,12.02
2019-05-02T14:24:42.176Z,11.95
2019-05-02T14:27:12.966Z,11.98
2019-05-02T14:29:37.520Z,12.02
2019-05-02T14:32:19.686Z,12.02
2019-05-02T14:34:47.769Z,12.20
2019-05-02T14:37:14.550Z,12.17
2019-05-02T14:39:42.619Z,12.24
2019-05-02T14:42:15.308Z,12.21
2019-05-02T14:45:01.403Z,12.20
2019-05-02T14:47:10.045Z,12.23
2019-05-02T14:49:35.682Z,12.23
2019-05-02T14:52:06.883Z,12.26
2019-05-02T14:54:32.550Z,12.30
2019-05-02T14:57:03.297Z,12.31
2019-05-02T14:59:32.132Z,12.24
2019-05-02T15:02:05.727Z,12.19
2019-05-02T15:04:32.056Z,12.24
2019-05-02T15:06:58.715Z,12.32
2019-05-02T15:09:27.154Z,12.51
2019-05-02T15:12:03.065Z,12.44
2019-05-02T15:14:32.928Z,12.44
2019-05-02T15:16:59.900Z,12.34
2019-05-02T15:19:26.793Z,12.10
2019-05-02T15:21:56.018Z,12.11
2019-05-02T15:24:23.101Z,12.28
2019-05-02T15:26:50.120Z,12.30
2019-05-02T15:29:19.781Z,12.17
2019-05-02T15:31:58.051Z,12.01
2019-05-02T15:34:46.181Z,12.00
2019-05-02T15:37:04.219Z,11.92
2019-05-02T15:42:01.643Z,11.85
2019-05-02T15:44:28.269Z,11.75
2019-05-02T15:46:58.313Z,11.47
2019-05-02T15:49:23.553Z,10.92
2019-05-02T15:51:52.287Z,10.92
2019-05-02T15:54:20.416Z,10.43
2019-05-02T15:56:52.557Z,10.13
2019-05-02T15:59:37.588Z,10.13
2019-05-02T16:02:03.375Z,9.89
2019-05-02T16:04:35.034Z,9.72
2019-05-02T16:07:07.170Z,9.58
2019-05-02T16:09:30.597Z,9.42
2019-05-02T16:11:57.407Z,9.37
2019-05-02T16:14:27.075Z,9.28
2019-05-02T16:16:52.770Z,9.30
2019-05-02T16:19:27.060Z,9.05
2019-05-02T16:22:11.506Z,8.99
2019-05-02T16:24:38.381Z,8.94
2019-05-02T16:27:05.178Z,8.85
2019-05-02T16:29:32.047Z,8.81
2019-05-02T16:35:00.402Z,8.56
2019-05-02T16:37:27.203Z,8.44
2019-05-02T16:39:53.976Z,8.38
2019-05-02T16:42:22.587Z,8.32
2019-05-02T16:44:49.744Z,8.26
2019-05-02T16:47:16.566Z,8.18
2019-05-02T16:49:43.227Z,8.03
2019-05-02T16:52:10.121Z,7.97
2019-05-02T16:54:41.671Z,7.92
2019-05-02T16:57:06.099Z,7.88
2019-05-02T16:59:34.461Z,7.87
2019-05-02T17:02:07.763Z,7.91
2019-05-02T17:04:31.783Z,7.86
2019-05-02T17:07:02.105Z,7.85
2019-05-02T17:09:39.856Z,7.82
2019-05-02T17:12:11.877Z,7.82
2019-05-02T17:14:35.530Z,7.80
2019-05-02T17:17:02.489Z,7.78
2019-05-02T17:19:33.384Z,7.82
2019-05-02T17:21:58.245Z,7.84
2019-05-02T17:24:26.236Z,7.87
2019-05-02T17:26:53.108Z,7.91
2019-05-02T17:29:21.416Z,7.90
2019-05-02T17:31:50.022Z,7.88
2019-05-02T17:34:24.459Z,7.92
2019-05-02T17:36:46.548Z,7.97
2019-05-02T17:39:13.341Z,7.98
2019-05-02T17:41:42.310Z,8.00
2019-05-02T17:44:12.913Z,8.03
2019-05-02T17:46:39.265Z,8.06
2019-05-02T17:49:07.024Z,8.10
2019-05-02T17:52:05.405Z,8.12
2019-05-02T17:54:26.338Z,8.14
2019-05-02T17:56:57.384Z,8.16
2019-05-02T17:59:22.194Z,8.18
2019-05-02T18:01:49.078Z,8.21
2019-05-02T18:04:16.589Z,8.24
2019-05-02T18:06:46.797Z,8.35
2019-05-02T18:09:12.397Z,8.35
2019-05-02T18:11:39.200Z,8.28
2019-05-02T18:14:18.633Z,8.26
2019-05-02T18:19:15.974Z,8.33
2019-05-02T18:21:43.660Z,8.29
2019-05-02T18:24:12.480Z,8.21
2019-05-02T18:26:39.144Z,8.22
2019-05-02T18:29:07.117Z,8.15
2019-05-02T18:31:34.817Z,8.14
2019-05-02T18:34:02.779Z,8.12
2019-05-02T18:36:29.458Z,8.13
2019-05-02T18:39:00.652Z,8.10
2019-05-02T18:41:24.866Z,8.10
2019-05-02T18:43:52.111Z,8.06
2019-05-02T18:46:20.042Z,8.08
2019-05-02T18:48:49.190Z,8.07
2019-05-02T18:51:17.166Z,8.08
2019-05-02T18:53:45.460Z,8.00
2019-05-02T18:56:12.678Z,7.98
2019-05-02T18:58:41.347Z,8.00
2019-05-02T19:01:12.958Z,7.96
2019-05-02T19:03:36.861Z,8.01
2019-05-02T19:06:04.795Z,8.01
2019-05-02T19:08:45.200Z,7.98
2019-05-02T19:11:11.416Z,7.94
2019-05-02T19:13:32.927Z,7.93
2019-05-02T19:16:02.091Z,7.95
2019-05-02T19:18:31.884Z,7.92
2019-05-02T19:21:00.078Z,7.94
2019-05-02T19:23:27.871Z,7.95
2019-05-02T19:25:54.757Z,7.92
2019-05-02T19:28:24.504Z,7.95
2019-05-02T19:30:52.033Z,7.95
2019-05-02T19:33:21.109Z,7.88
2019-05-02T19:35:49.995Z,7.89
2019-05-02T19:38:17.053Z,7.88
2019-05-02T19:40:44.969Z,7.84
2019-05-02T19:43:14.526Z,7.92
2019-05-02T19:45:40.533Z,8.27
2019-05-02T19:48:07.347Z,8.97
2019-05-02T19:50:41.622Z,8.47
2019-05-02T19:53:14.844Z,8.28
2019-05-02T19:55:36.085Z,8.34
2019-05-02T19:58:06.419Z,8.98
2019-05-02T20:00:36.701Z,8.68
2019-05-02T20:03:01.774Z,8.29
2019-05-02T20:05:28.678Z,8.17
2019-05-02T20:07:55.457Z,8.17
2019-05-02T20:10:22.720Z,8.12
2019-05-02T20:12:50.919Z,8.00
2019-05-02T20:15:22.814Z,8.33
2019-05-02T20:17:53.487Z,8.19
2019-05-02T20:20:40.466Z,8.48
2019-05-02T20:23:15.632Z,8.37
2019-05-02T20:25:39.124Z,8.23
2019-05-02T20:28:07.525Z,8.49
2019-05-02T20:30:36.747Z,8.13
2019-05-02T20:33:06.058Z,8.37
2019-05-02T20:35:35.939Z,8.74
2019-05-02T20:38:06.425Z,8.31
2019-05-02T20:40:37.683Z,7.96
2019-05-02T20:43:07.622Z,8.03
2019-05-02T20:45:35.274Z,8.03
2019-05-02T20:48:02.290Z,8.07
2019-05-02T20:50:29.113Z,7.98
2019-05-02T20:52:56.031Z,7.97
2019-05-02T20:55:23.054Z,7.49
2019-05-02T20:57:49.824Z,7.67
2019-05-02T21:00:23.462Z,7.78
2019-05-02T21:02:51.801Z,8.10
2019-05-02T21:05:32.147Z,7.70
2019-05-02T21:08:24.552Z,7.84
2019-05-02T21:10:53.111Z,7.56
2019-05-02T21:13:21.974Z,7.50
2019-05-02T21:15:48.607Z,7.69
2019-05-02T21:18:15.672Z,7.42
2019-05-02T21:20:42.600Z,7.38
2019-05-02T21:23:09.389Z,7.17
2019-05-02T21:25:36.152Z,7.34
2019-05-02T21:28:03.128Z,7.51
2019-05-02T21:30:32.243Z,7.46
2019-05-02T21:32:59.509Z,7.57
2019-05-02T21:35:26.706Z,7.14
2019-05-02T21:37:53.483Z,7.51
2019-05-02T21:40:22.331Z,7.60
2019-05-02T21:42:48.926Z,7.23
2019-05-02T21:45:15.794Z,7.06
2019-05-02T21:47:43.694Z,7.10
2019-05-02T21:50:17.158Z,6.87
2019-05-02T21:53:08.040Z,7.29
2019-05-02T21:55:55.486Z,7.14
2019-05-02T21:58:22.338Z,6.88
2019-05-02T22:01:02.044Z,7.20
2019-05-02T22:03:32.361Z,6.65
2019-05-02T22:05:59.302Z,6.48
2019-05-02T22:08:26.075Z,6.49
2019-05-02T22:10:52.863Z,6.60
2019-05-02T22:13:22.219Z,6.59
2019-05-02T22:15:48.997Z,6.27
2019-05-02T22:18:16.909Z,6.53
2019-05-02T22:20:43.662Z,6.34
2019-05-02T22:23:11.809Z,6.24
2019-05-02T22:25:38.635Z,6.06
2019-05-02T22:28:05.459Z,5.92
2019-05-02T22:30:32.384Z,5.90
2019-05-02T22:32:59.143Z,5.73
2019-05-02T22:35:25.855Z,5.71
2019-05-02T22:37:54.830Z,5.75
2019-05-02T22:40:21.894Z,5.66
2019-05-02T22:42:48.667Z,5.61
2019-05-02T22:45:15.435Z,5.61
2019-05-02T22:47:42.580Z,5.70
2019-05-02T22:50:10.005Z,5.58
2019-05-02T22:52:36.685Z,5.51
2019-05-02T22:55:04.804Z,5.56
2019-05-02T22:57:31.852Z,5.47
2019-05-02T22:59:58.793Z,5.47
2019-05-02T23:02:25.583Z,5.38
2019-05-02T23:04:52.787Z,5.38
2019-05-02T23:07:22.053Z,5.38
2019-05-02T23:09:48.527Z,5.31
2019-05-02T23:12:15.455Z,5.29
2019-05-02T23:14:42.229Z,5.23
2019-05-02T23:17:09.076Z,5.24
2019-05-02T23:19:35.897Z,5.20
2019-05-02T23:22:03.005Z,5.17
2019-05-02T23:24:42.612Z,5.21
2019-05-02T23:27:29.133Z,5.24
2019-05-02T23:29:56.147Z,5.30
2019-05-02T23:32:23.864Z,5.24
2019-05-02T23:34:52.311Z,5.24
2019-05-02T23:37:19.066Z,5.18
2019-05-02T23:39:45.722Z,5.20
2019-05-02T23:42:13.547Z,5.20
2019-05-02T23:44:42.379Z,5.16
2019-05-02T23:47:09.043Z,5.20
2019-05-02T23:49:35.846Z,5.24
2019-05-02T23:52:02.766Z,5.23
2019-05-02T23:54:29.616Z,5.23
2019-05-02T23:56:57.661Z,5.25
2019-05-02T23:59:25.608Z,5.29
